Hope, New Jersey
Current Conditions -  °F | °C
As of 3:53 PM on Saturday 22 Nov 2014 (Local Time) from KSMQ Reporting Station
Overcast Overcast  
Wind Chill: 39°   Ceiling: 5000
Heat Index: 43°   Visibility: 10mi
Dew Point: 15°   Wind: 6mph
Humidity: 32%   Direction: NA
Pressure: 30.26"   Gusts: NA
Location:  40.91°N, 74.97°W
Report Text: KSMQ 222053Z AUTO VRB05KT 10SM OVC050 06/M09 A3026 RMK AO2 SLP251 T00611094 56020
Loading
Personal Weather Stations






























Interactive Weather Map New forecast layout! Learn more

10-Day Weather Forecast

Advertisements
Track Severe Weather on mobile